createdAt,value
2019-02-07T00:02:13.147Z,2.87
2019-02-07T00:04:43.364Z,3.98
2019-02-07T00:07:14.064Z,2.30
2019-02-07T00:09:44.268Z,3.15
2019-02-07T00:12:14.563Z,2.60
2019-02-07T00:14:44.771Z,2.98
2019-02-07T00:17:15.067Z,2.70
2019-02-07T00:19:45.344Z,3.30
2019-02-07T00:22:15.583Z,2.22
2019-02-07T00:24:45.803Z,2.60
2019-02-07T00:27:16.086Z,2.42
2019-02-07T00:29:46.307Z,5.10
2019-02-07T00:32:16.531Z,2.75
2019-02-07T00:34:47.335Z,2.50
2019-02-07T00:37:17.560Z,2.75
2019-02-07T00:39:47.784Z,2.42
2019-02-07T00:42:17.431Z,2.33
2019-02-07T00:44:50.802Z,3.27
2019-02-07T00:47:19.532Z,3.35
2019-02-07T00:49:49.753Z,3.02
2019-02-07T00:52:20.026Z,2.42
2019-02-07T00:54:50.360Z,2.62
2019-02-07T00:57:20.567Z,2.83
2019-02-07T00:59:50.787Z,2.95
2019-02-07T01:02:21.064Z,3.35
2019-02-07T01:04:51.284Z,2.47
2019-02-07T01:07:21.508Z,3.05
2019-02-07T01:09:51.733Z,2.45
2019-02-07T01:12:21.956Z,2.17
2019-02-07T01:15:01.637Z,2.77
2019-02-07T01:17:24.575Z,2.17
2019-02-07T01:19:54.799Z,2.05
2019-02-07T01:22:25.051Z,2.10
2019-02-07T01:24:55.280Z,2.50
2019-02-07T01:27:25.485Z,4.25
2019-02-07T01:29:56.060Z,3.83
2019-02-07T01:32:26.291Z,2.00
2019-02-07T01:34:56.515Z,2.33
2019-02-07T01:37:26.725Z,3.72
2019-02-07T01:39:56.946Z,2.67
2019-02-07T01:42:27.747Z,3.50
2019-02-07T01:44:57.947Z,3.98
2019-02-07T01:47:28.239Z,2.80
2019-02-07T01:49:58.668Z,4.35
2019-02-07T01:52:29.202Z,2.08
2019-02-07T01:54:59.425Z,2.42
2019-02-07T01:57:30.119Z,3.08
2019-02-07T02:00:00.398Z,3.55
2019-02-07T02:02:30.714Z,3.35
2019-02-07T02:05:00.922Z,3.70
2019-02-07T02:07:31.195Z,4.10
2019-02-07T02:10:01.521Z,3.12
2019-02-07T02:12:32.485Z,3.72
2019-02-07T02:15:02.974Z,2.87
2019-02-07T02:17:33.176Z,3.35
2019-02-07T02:20:08.832Z,3.60
2019-02-07T02:22:39.128Z,3.80
2019-02-07T02:25:11.075Z,3.15
2019-02-07T02:27:41.275Z,3.83
2019-02-07T02:30:17.588Z,3.95
2019-02-07T02:32:47.807Z,4.47
2019-02-07T02:35:18.020Z,3.33
2019-02-07T02:37:48.419Z,4.15
2019-02-07T02:40:18.736Z,4.05
2019-02-07T02:42:49.246Z,3.50
2019-02-07T02:45:21.619Z,4.03
2019-02-07T02:47:51.827Z,4.08
2019-02-07T02:50:23.423Z,2.97
2019-02-07T02:52:53.672Z,3.17
2019-02-07T02:55:37.527Z,4.12
2019-02-07T02:58:07.488Z,5.70
2019-02-07T03:00:39.336Z,4.37
2019-02-07T03:03:17.372Z,3.95
2019-02-07T03:05:52.355Z,4.72
2019-02-07T03:08:30.145Z,3.65
2019-02-07T03:11:04.157Z,3.95
2019-02-07T03:13:38.983Z,4.45
2019-02-07T03:16:10.820Z,3.42
2019-02-07T03:18:58.884Z,5.85
2019-02-07T03:21:32.899Z,3.58
2019-02-07T03:24:07.100Z,4.08
2019-02-07T03:26:48.199Z,3.15
2019-02-07T03:29:36.667Z,3.67
2019-02-07T03:32:14.933Z,4.20
2019-02-07T03:34:58.899Z,4.87
2019-02-07T03:37:30.184Z,4.90
2019-02-07T03:40:13.323Z,5.10
2019-02-07T03:42:44.618Z,3.58
2019-02-07T03:45:16.467Z,4.47
2019-02-07T03:47:51.369Z,4.78
2019-02-07T03:50:29.058Z,4.28
2019-02-07T03:53:00.913Z,4.50
2019-02-07T03:55:38.760Z,4.33
2019-02-07T03:58:19.028Z,3.77
2019-02-07T04:01:02.400Z,4.30
2019-02-07T04:03:33.693Z,4.27
2019-02-07T04:06:12.133Z,4.35
2019-02-07T04:09:00.142Z,4.55
2019-02-07T04:11:34.484Z,4.55
2019-02-07T04:14:06.809Z,4.58
2019-02-07T04:16:47.274Z,3.73
2019-02-07T04:19:36.771Z,5.83
2019-02-07T04:22:23.984Z,4.20
2019-02-07T04:25:13.108Z,3.65
2019-02-07T04:27:53.196Z,5.87
2019-02-07T04:30:30.608Z,5.00
2019-02-07T04:33:11.118Z,5.10
2019-02-07T04:35:58.615Z,4.77
2019-02-07T04:38:33.163Z,3.90
2019-02-07T04:41:13.199Z,4.87
2019-02-07T04:43:44.483Z,3.80
2019-02-07T04:46:26.615Z,5.37
2019-02-07T04:48:55.067Z,4.70
2019-02-07T04:51:30.328Z,3.93
2019-02-07T04:54:07.569Z,4.37
2019-02-07T04:56:48.636Z,5.60
2019-02-07T04:59:20.031Z,4.35
2019-02-07T05:01:57.588Z,3.95
2019-02-07T05:04:35.196Z,6.67
2019-02-07T05:07:13.246Z,4.90
2019-02-07T05:09:44.896Z,4.47
2019-02-07T05:12:18.919Z,4.83
2019-02-07T05:14:52.911Z,5.80
2019-02-07T05:17:29.918Z,4.27
2019-02-07T05:20:07.468Z,4.10
2019-02-07T05:22:50.380Z,5.13
2019-02-07T05:25:30.699Z,4.20
2019-02-07T05:28:02.061Z,6.63
2019-02-07T05:30:33.557Z,6.07
2019-02-07T05:33:04.866Z,4.63
2019-02-07T05:35:48.571Z,5.87
2019-02-07T05:38:23.124Z,4.25
2019-02-07T05:40:54.427Z,4.83
2019-02-07T05:43:29.977Z,5.03
2019-02-07T05:46:01.754Z,4.87
2019-02-07T05:48:48.274Z,4.30
2019-02-07T05:51:31.548Z,5.27
2019-02-07T05:54:06.107Z,5.30
2019-02-07T05:56:53.018Z,3.95
2019-02-07T05:59:24.315Z,3.27
2019-02-07T06:01:55.606Z,5.20
2019-02-07T06:04:28.070Z,6.80
2019-02-07T06:07:14.637Z,4.47
2019-02-07T06:09:58.616Z,4.40
2019-02-07T06:12:32.416Z,3.87
2019-02-07T06:15:06.650Z,4.53
2019-02-07T06:17:54.263Z,4.53
2019-02-07T06:20:41.978Z,5.12
2019-02-07T06:23:23.019Z,3.62
2019-02-07T06:25:54.894Z,4.12
2019-02-07T06:28:27.219Z,4.80
2019-02-07T06:31:01.997Z,5.10
2019-02-07T06:33:50.082Z,5.03
2019-02-07T06:36:24.849Z,4.42
2019-02-07T06:38:56.692Z,3.65
2019-02-07T06:41:34.607Z,4.67
2019-02-07T06:44:06.539Z,3.52
2019-02-07T06:46:53.455Z,5.10
2019-02-07T06:49:34.548Z,3.75
2019-02-07T06:52:22.635Z,4.80
2019-02-07T06:55:04.079Z,4.53
2019-02-07T06:57:52.063Z,4.37
2019-02-07T07:00:33.048Z,4.17
2019-02-07T07:03:04.900Z,5.22
2019-02-07T07:05:48.985Z,4.08
2019-02-07T07:08:29.649Z,5.70
2019-02-07T07:11:01.507Z,6.08
2019-02-07T07:13:39.080Z,4.15
2019-02-07T07:16:23.111Z,3.33
2019-02-07T07:18:55.640Z,4.37
2019-02-07T07:21:27.863Z,5.67
2019-02-07T07:24:02.992Z,3.15
2019-02-07T07:26:51.617Z,4.92
2019-02-07T07:29:23.471Z,4.95
2019-02-07T07:32:11.573Z,4.83
2019-02-07T07:34:58.540Z,4.87
2019-02-07T07:37:42.360Z,5.08
2019-02-07T07:40:31.415Z,6.25
2019-02-07T07:43:19.743Z,5.50
2019-02-07T07:45:57.311Z,5.62
2019-02-07T07:48:29.199Z,6.35
2019-02-07T07:51:10.363Z,7.30
2019-02-07T07:53:58.708Z,5.10
2019-02-07T07:56:45.783Z,4.05
2019-02-07T07:59:27.484Z,5.87
2019-02-07T08:02:08.375Z,6.10
2019-02-07T08:04:56.472Z,6.00
2019-02-07T08:07:29.499Z,5.45
2019-02-07T08:10:01.364Z,5.40
2019-02-07T08:12:34.479Z,4.72
2019-02-07T08:15:12.600Z,8.98
2019-02-07T08:18:00.642Z,5.17
2019-02-07T08:20:44.325Z,5.15
2019-02-07T08:23:22.391Z,5.47
2019-02-07T08:25:54.234Z,5.28
2019-02-07T08:28:41.353Z,6.75
2019-02-07T08:31:13.583Z,5.97
2019-02-07T08:33:51.180Z,5.85
2019-02-07T08:36:39.576Z,3.58
2019-02-07T08:39:13.071Z,5.08
2019-02-07T08:41:59.675Z,4.72
2019-02-07T08:44:40.359Z,3.92
2019-02-07T08:47:15.817Z,4.58
2019-02-07T08:49:56.712Z,4.40
2019-02-07T08:52:28.583Z,5.85
2019-02-07T08:55:15.716Z,5.03
2019-02-07T08:57:59.494Z,5.30
2019-02-07T09:00:31.348Z,5.78
2019-02-07T09:03:15.441Z,4.70
2019-02-07T09:05:52.924Z,4.37
2019-02-07T09:08:39.645Z,3.58
2019-02-07T09:11:17.325Z,4.28
2019-02-07T09:13:53.843Z,4.92
2019-02-07T09:16:28.409Z,4.60
2019-02-07T09:19:00.243Z,3.75
2019-02-07T09:21:34.792Z,4.12
2019-02-07T09:24:21.700Z,4.85
2019-02-07T09:27:02.542Z,5.25
2019-02-07T09:29:49.668Z,3.95
2019-02-07T09:32:38.851Z,4.62
2019-02-07T09:35:27.172Z,4.30
2019-02-07T09:38:11.052Z,4.47
2019-02-07T09:40:59.143Z,3.92
2019-02-07T09:43:37.044Z,4.47
2019-02-07T09:46:25.403Z,4.22
2019-02-07T09:49:08.986Z,4.05
2019-02-07T09:51:42.821Z,3.40
2019-02-07T09:54:20.639Z,4.87
2019-02-07T09:56:52.787Z,3.30
2019-02-07T09:59:27.148Z,5.65
2019-02-07T10:01:58.992Z,3.65
2019-02-07T10:04:45.924Z,4.90
2019-02-07T10:07:17.780Z,4.22
2019-02-07T10:09:58.877Z,6.28
2019-02-07T10:12:45.891Z,3.35
2019-02-07T10:15:34.046Z,3.35
2019-02-07T10:18:32.796Z,5.37
2019-02-07T10:21:04.589Z,5.65
2019-02-07T10:23:45.736Z,3.92
2019-02-07T10:26:20.348Z,5.12
2019-02-07T10:28:55.029Z,5.30
2019-02-07T10:31:35.900Z,4.42
2019-02-07T10:34:24.197Z,5.12
2019-02-07T10:36:58.747Z,3.62
2019-02-07T10:39:30.604Z,4.62
2019-02-07T10:42:02.832Z,3.35
2019-02-07T10:44:50.952Z,4.97
2019-02-07T10:47:39.268Z,3.30
2019-02-07T10:50:28.178Z,3.40
2019-02-07T10:53:08.944Z,4.05
2019-02-07T10:55:56.654Z,4.60
2019-02-07T10:58:37.444Z,4.45
2019-02-07T11:01:11.169Z,3.60
2019-02-07T11:03:47.271Z,5.20
2019-02-07T11:06:27.912Z,3.52
2019-02-07T11:09:08.747Z,3.30
2019-02-07T11:11:56.719Z,4.80
2019-02-07T11:14:31.604Z,5.10
2019-02-07T11:17:15.369Z,3.65
2019-02-07T11:20:05.220Z,5.15
2019-02-07T11:22:39.750Z,3.42
2019-02-07T11:25:28.271Z,3.92
2019-02-07T11:28:13.454Z,5.15
2019-02-07T11:30:45.304Z,5.10
2019-02-07T11:33:32.231Z,3.85
2019-02-07T11:36:12.827Z,5.05
2019-02-07T11:38:59.436Z,4.37
2019-02-07T11:41:31.285Z,4.65
2019-02-07T11:44:12.396Z,3.85
2019-02-07T11:46:53.239Z,3.58
2019-02-07T11:49:31.848Z,4.90
2019-02-07T11:52:15.963Z,5.47
2019-02-07T11:55:05.780Z,5.87
2019-02-07T11:57:38.790Z,3.95
2019-02-07T12:00:16.721Z,5.17
2019-02-07T12:02:51.314Z,3.85
2019-02-07T12:05:31.971Z,5.00
2019-02-07T12:08:03.825Z,7.28
2019-02-07T12:10:35.676Z,3.90
2019-02-07T12:13:16.651Z,3.83
2019-02-07T12:15:48.576Z,8.03
2019-02-07T12:18:27.564Z,5.37
2019-02-07T12:20:59.426Z,3.45
2019-02-07T12:23:36.944Z,5.05
2019-02-07T12:26:20.983Z,3.95
2019-02-07T12:28:56.725Z,4.35
2019-02-07T12:31:46.667Z,6.30
2019-02-07T12:34:24.414Z,4.47
2019-02-07T12:37:12.405Z,4.83
2019-02-07T12:39:47.211Z,6.37
2019-02-07T12:42:21.773Z,8.75
2019-02-07T12:45:02.631Z,5.53
2019-02-07T12:47:35.660Z,5.10
2019-02-07T12:50:27.068Z,6.03
2019-02-07T12:53:01.905Z,3.92
2019-02-07T12:55:36.443Z,4.35
2019-02-07T12:58:18.482Z,7.65
2019-02-07T13:00:56.550Z,4.12
2019-02-07T13:03:44.467Z,5.62
2019-02-07T13:06:32.560Z,4.10
2019-02-07T13:09:16.687Z,5.47
2019-02-07T13:11:48.554Z,3.55
2019-02-07T13:14:20.475Z,4.10
2019-02-07T13:17:07.439Z,4.08
2019-02-07T13:19:40.862Z,3.00
2019-02-07T13:22:29.348Z,5.40
2019-02-07T13:25:07.160Z,3.22
2019-02-07T13:27:42.739Z,3.33
2019-02-07T13:30:20.706Z,3.67
2019-02-07T13:33:11.242Z,3.62
2019-02-07T13:35:43.143Z,3.95
2019-02-07T13:38:27.060Z,3.50
2019-02-07T13:41:17.267Z,5.05
2019-02-07T13:44:05.541Z,3.35
2019-02-07T13:46:37.768Z,5.15
2019-02-07T13:49:12.344Z,4.25
2019-02-07T13:51:49.899Z,3.40
2019-02-07T13:54:24.502Z,4.53
2019-02-07T13:57:11.751Z,4.15
2019-02-07T13:59:49.423Z,3.60
2019-02-07T14:02:30.236Z,4.50
2019-02-07T14:05:04.904Z,4.62
2019-02-07T14:07:39.955Z,5.10
2019-02-07T14:10:31.716Z,4.70
2019-02-07T14:13:21.893Z,4.42
2019-02-07T14:16:12.013Z,3.80
2019-02-07T14:18:47.328Z,4.30
2019-02-07T14:21:28.191Z,2.65
2019-02-07T14:24:05.579Z,5.00
2019-02-07T14:26:49.345Z,2.60
2019-02-07T14:29:36.588Z,3.95
2019-02-07T14:32:24.860Z,5.47
2019-02-07T14:35:14.674Z,6.40
2019-02-07T14:37:55.508Z,3.25
2019-02-07T14:40:33.914Z,5.42
2019-02-07T14:43:12.254Z,3.10
2019-02-07T14:45:50.302Z,3.30
2019-02-07T14:48:22.322Z,2.83
2019-02-07T14:50:52.879Z,3.45
2019-02-07T14:53:23.080Z,3.33
2019-02-07T14:55:53.296Z,3.80
2019-02-07T14:58:23.510Z,5.45
2019-02-07T15:00:53.722Z,4.75
2019-02-07T15:03:24.308Z,6.03
2019-02-07T15:05:54.515Z,5.53
2019-02-07T15:08:24.724Z,4.17
2019-02-07T15:10:54.952Z,3.85
2019-02-07T15:13:25.236Z,7.33
2019-02-07T15:15:55.571Z,6.50
2019-02-07T15:18:26.164Z,4.78
2019-02-07T15:20:56.376Z,6.12
2019-02-07T15:23:26.585Z,4.03
2019-02-07T15:25:56.877Z,9.48
2019-02-07T15:28:27.084Z,4.80
2019-02-07T15:30:57.307Z,8.80
2019-02-07T15:33:27.657Z,6.78
2019-02-07T15:35:58.012Z,11.00
2019-02-07T15:38:29.578Z,5.47
2019-02-07T15:40:59.804Z,4.40
2019-02-07T15:43:30.015Z,4.58
2019-02-07T15:46:00.819Z,5.85
2019-02-07T15:48:31.027Z,6.72
2019-02-07T15:51:00.912Z,3.70
2019-02-07T15:53:31.204Z,6.10
2019-02-07T15:56:01.412Z,3.90
2019-02-07T15:58:33.280Z,5.90
2019-02-07T16:01:05.119Z,4.65
2019-02-07T16:03:39.943Z,4.80
2019-02-07T16:06:10.433Z,7.83
2019-02-07T16:08:40.650Z,4.87
2019-02-07T16:11:10.925Z,5.45
2019-02-07T16:13:41.175Z,2.42
2019-02-07T16:16:11.000Z,4.33
2019-02-07T16:18:41.895Z,3.20
2019-02-07T16:21:12.363Z,4.75
2019-02-07T16:23:42.581Z,3.80
2019-02-07T16:26:13.368Z,4.17
2019-02-07T16:28:43.656Z,5.35
2019-02-07T16:31:13.860Z,4.83
2019-02-07T16:33:44.083Z,2.45
2019-02-07T16:36:14.452Z,3.95
2019-02-07T16:38:44.683Z,3.05
2019-02-07T16:41:15.547Z,5.95
2019-02-07T16:43:45.763Z,5.70
2019-02-07T16:46:15.979Z,5.85
2019-02-07T16:48:46.204Z,6.58
2019-02-07T16:51:16.424Z,2.47
2019-02-07T16:53:47.128Z,2.12
2019-02-07T16:56:17.352Z,3.37
2019-02-07T16:58:47.581Z,3.08
2019-02-07T17:01:17.803Z,3.30
2019-02-07T17:03:48.870Z,3.65
2019-02-07T17:06:19.127Z,3.50
2019-02-07T17:08:49.351Z,2.87
2019-02-07T17:11:19.580Z,3.08
2019-02-07T17:13:49.800Z,3.37
2019-02-07T17:16:20.162Z,3.55
2019-02-07T17:18:51.347Z,1.87
2019-02-07T17:21:21.974Z,4.08
2019-02-07T17:23:52.345Z,3.25
2019-02-07T17:26:22.724Z,4.40
2019-02-07T17:28:52.943Z,2.83
2019-02-07T17:31:23.227Z,3.72
2019-02-07T17:33:53.436Z,3.95
2019-02-07T17:36:23.665Z,2.52
2019-02-07T17:38:53.884Z,3.17
2019-02-07T17:41:24.145Z,4.00
2019-02-07T17:43:54.380Z,2.85
2019-02-07T17:46:24.599Z,3.05
2019-02-07T17:48:54.826Z,3.55
2019-02-07T17:51:25.347Z,2.60
2019-02-07T17:53:55.568Z,2.90
2019-02-07T17:56:25.806Z,2.77
2019-02-07T17:58:56.032Z,3.27
2019-02-07T18:01:26.577Z,2.60
2019-02-07T18:03:58.070Z,3.55
2019-02-07T18:06:28.292Z,2.87
2019-02-07T18:08:58.514Z,4.28
2019-02-07T18:11:28.724Z,3.62
2019-02-07T18:13:58.952Z,2.90
2019-02-07T18:16:29.170Z,2.65
2019-02-07T18:18:59.380Z,4.15
2019-02-07T18:21:34.367Z,3.87
2019-02-07T18:24:02.004Z,4.65
2019-02-07T18:26:32.215Z,4.97
2019-02-07T18:29:02.435Z,3.12
2019-02-07T18:31:33.139Z,2.80
2019-02-07T18:34:03.599Z,2.52
2019-02-07T18:36:33.825Z,3.62
2019-02-07T18:39:07.511Z,3.90
2019-02-07T18:41:37.861Z,4.83
2019-02-07T18:44:08.088Z,3.42
2019-02-07T18:46:38.308Z,3.98
2019-02-07T18:49:08.534Z,2.85
2019-02-07T18:51:45.713Z,2.35
2019-02-07T18:54:10.694Z,8.30
2019-02-07T18:56:40.900Z,4.47
2019-02-07T18:59:11.695Z,2.92
2019-02-07T19:01:41.912Z,5.28
2019-02-07T19:04:12.384Z,4.33
2019-02-07T19:06:42.603Z,2.92
2019-02-07T19:09:12.831Z,2.72
2019-02-07T19:11:43.038Z,4.85
2019-02-07T19:14:13.240Z,3.60
2019-02-07T19:16:43.455Z,4.45
2019-02-07T19:19:13.667Z,7.15
2019-02-07T19:21:43.921Z,10.88
2019-02-07T19:24:14.159Z,23.80
2019-02-07T19:26:44.406Z,21.25
2019-02-07T19:29:14.640Z,25.35
2019-02-07T19:31:44.887Z,22.75
2019-02-07T19:34:15.508Z,24.00
2019-02-07T19:36:45.759Z,26.20
2019-02-07T19:39:16.003Z,22.55
2019-02-07T19:41:46.920Z,20.27
2019-02-07T19:44:17.164Z,22.62
2019-02-07T19:46:47.401Z,18.98
2019-02-07T19:49:17.655Z,17.80
2019-02-07T19:51:48.194Z,18.60
2019-02-07T19:54:18.446Z,18.12
2019-02-07T19:56:49.950Z,19.52
2019-02-07T19:59:20.196Z,18.92
2019-02-07T20:01:50.451Z,17.85
2019-02-07T20:04:20.738Z,19.07
2019-02-07T20:06:50.979Z,19.00
2019-02-07T20:09:21.232Z,16.85
2019-02-07T20:11:51.632Z,14.50
2019-02-07T20:14:21.882Z,17.45
2019-02-07T20:16:52.203Z,18.40
2019-02-07T20:19:22.567Z,16.80
2019-02-07T20:21:52.912Z,15.03
2019-02-07T20:24:23.177Z,15.30
2019-02-07T20:26:53.789Z,19.20
2019-02-07T20:29:24.032Z,18.80
2019-02-07T20:31:54.267Z,14.58
2019-02-07T20:34:24.503Z,16.85
2019-02-07T20:36:54.739Z,15.23
2019-02-07T20:39:24.975Z,14.95
2019-02-07T20:41:55.687Z,15.00
2019-02-07T20:44:27.604Z,18.30
2019-02-07T20:46:57.845Z,13.15
2019-02-07T20:49:28.076Z,16.32
2019-02-07T20:51:58.720Z,14.00
2019-02-07T20:54:28.951Z,17.62
2019-02-07T20:57:00.095Z,13.28
2019-02-07T20:59:30.338Z,12.58
2019-02-07T21:02:00.571Z,14.75
2019-02-07T21:04:30.813Z,11.10
2019-02-07T21:07:01.051Z,13.95
2019-02-07T21:09:31.283Z,10.72
2019-02-07T21:12:01.900Z,17.37
2019-02-07T21:14:32.351Z,10.08
2019-02-07T21:17:02.587Z,11.03
2019-02-07T21:19:32.824Z,20.92
2019-02-07T21:22:03.199Z,11.65
2019-02-07T21:24:33.432Z,9.28
2019-02-07T21:27:04.138Z,12.90
2019-02-07T21:29:34.375Z,11.18
2019-02-07T21:32:04.613Z,11.22
2019-02-07T21:34:34.827Z,9.13
2019-02-07T21:37:05.064Z,9.68
2019-02-07T21:39:35.437Z,11.25
2019-02-07T21:42:06.160Z,10.23
2019-02-07T21:44:36.398Z,11.50
2019-02-07T21:47:06.640Z,11.93
2019-02-07T21:49:36.299Z,9.15
2019-02-07T21:52:06.556Z,13.72
2019-02-07T21:54:36.211Z,10.10
2019-02-07T21:57:07.039Z,12.07
2019-02-07T21:59:36.772Z,9.58
2019-02-07T22:02:07.051Z,12.03
2019-02-07T22:04:37.287Z,10.18
2019-02-07T22:07:07.547Z,10.88
2019-02-07T22:09:37.265Z,11.77
2019-02-07T22:12:07.299Z,10.60
2019-02-07T22:14:36.960Z,10.33
2019-02-07T22:17:06.612Z,9.27
2019-02-07T22:19:36.264Z,9.60
2019-02-07T22:22:06.008Z,7.73
2019-02-07T22:24:35.668Z,9.00
2019-02-07T22:27:05.319Z,7.50
2019-02-07T22:29:34.971Z,8.80
2019-02-07T22:32:04.650Z,8.93
2019-02-07T22:34:34.301Z,9.57
2019-02-07T22:37:04.075Z,9.73
2019-02-07T22:39:33.728Z,8.27
2019-02-07T22:42:03.376Z,6.27
2019-02-07T22:44:33.031Z,8.93
2019-02-07T22:47:02.693Z,9.07
2019-02-07T22:49:32.348Z,9.50
2019-02-07T22:52:02.000Z,9.93
2019-02-07T22:54:31.671Z,8.07
2019-02-07T22:57:01.698Z,7.70
2019-02-07T22:59:31.455Z,8.93
2019-02-07T23:02:01.115Z,8.03
2019-02-07T23:04:30.776Z,8.87
2019-02-07T23:07:00.487Z,7.60
2019-02-07T23:09:30.148Z,7.23
2019-02-07T23:11:59.882Z,6.87
2019-02-07T23:14:29.523Z,7.87
2019-02-07T23:16:59.179Z,7.33
2019-02-07T23:19:28.835Z,7.83
2019-02-07T23:21:58.482Z,6.77
2019-02-07T23:24:28.135Z,7.37
2019-02-07T23:26:57.881Z,6.77
2019-02-07T23:29:27.527Z,7.13
2019-02-07T23:31:57.193Z,8.03
2019-02-07T23:34:27.227Z,7.37
2019-02-07T23:36:58.800Z,8.57
2019-02-07T23:39:28.939Z,9.20
2019-02-07T23:41:58.592Z,6.57
2019-02-07T23:44:28.243Z,6.57
2019-02-07T23:46:57.906Z,7.13
2019-02-07T23:49:27.559Z,6.57
2019-02-07T23:51:57.211Z,5.90
2019-02-07T23:54:26.872Z,6.70
2019-02-07T23:56:56.519Z,5.70
2019-02-07T23:59:26.191Z,7.20
